Time;durP1;ratioP1;P1;durP2;ratioP2;P2;SDS_P1;SDS_P2;PMS_P1;PMS_P2;Temp;Humidity;BMP_temperature;BMP_pressure;BME280_temperature;BME280_humidity;BME280_pressure;Samples;Min_cycle;Max_cycle;Signal;HPM_P1;HPM_P2
2023/03/09 00:01:53;;;;;;;1.40;1.30;;;;;;;18.62;44.38;95175.69;5008045;28;20232;-86
2023/03/09 00:04:20;;;;;;;1.40;1.30;;;;;;;18.60;44.39;95169.78;4978649;28;20218;-85
2023/03/09 00:06:46;;;;;;;1.40;1.30;;;;;;;18.02;44.51;95087.31;4976934;28;20290;-85
2023/03/09 00:09:13;;;;;;;1.50;1.40;;;;;;;18.46;44.49;95148.53;4991740;28;20231;-85
2023/03/09 00:11:47;;;;;;;1.37;1.27;;;;;;;19.18;44.52;95265.78;4965590;28;20582;-86
2023/03/09 00:14:14;;;;;;;1.33;1.23;;;;;;;18.82;44.45;95216.47;4989762;28;20214;-86
2023/03/09 00:16:41;;;;;;;1.47;1.37;;;;;;;18.44;44.82;95178.16;4993433;28;20214;-84
2023/03/09 00:19:08;;;;;;;1.40;1.30;;;;;;;19.03;44.66;95230.13;5012906;28;20293;-85
2023/03/09 00:21:34;;;;;;;1.40;1.30;;;;;;;18.63;44.70;95156.22;4990814;28;20206;-83
2023/03/09 00:24:03;;;;;;;1.50;1.40;;;;;;;19.21;44.55;95260.72;4988421;28;20293;-85
2023/03/09 00:26:31;;;;;;;1.40;1.30;;;;;;;17.69;44.81;95008.41;4997452;28;20198;-85
2023/03/09 00:28:57;;;;;;;1.60;1.50;;;;;;;17.56;44.49;94977.91;4961635;28;20206;-84
2023/03/09 00:31:24;;;;;;;1.67;1.57;;;;;;;19.24;44.61;95236.94;4971212;28;20205;-86
2023/03/09 00:33:51;;;;;;;1.60;1.50;;;;;;;19.25;44.55;95242.06;5010394;28;20709;-85
2023/03/09 00:36:17;;;;;;;1.53;1.43;;;;;;;19.25;44.60;95236.13;5012913;28;20238;-85
2023/03/09 00:38:49;;;;;;;1.53;1.40;;;;;;;9.59;44.63;93757.41;4992488;28;20233;-85
2023/03/09 00:41:16;;;;;;;1.90;1.60;;;;;;;16.62;44.66;94786.28;5010834;28;20769;-86
2023/03/09 00:43:42;;;;;;;1.70;1.60;;;;;;;17.49;44.75;94911.00;4996612;28;20273;-84
2023/03/09 00:46:09;;;;;;;1.47;1.37;;;;;;;19.28;44.19;95215.78;5006621;28;20202;-86
2023/03/09 00:48:36;;;;;;;2.10;1.70;;;;;;;19.28;44.54;95210.69;5012235;28;20293;-85
2023/03/09 00:51:02;;;;;;;1.60;1.50;;;;;;;19.29;44.59;95207.28;5014980;28;20597;-85
2023/03/09 00:53:29;;;;;;;1.30;1.20;;;;;;;17.79;44.34;94950.88;5004316;28;20226;-85
2023/03/09 00:55:56;;;;;;;1.77;1.63;;;;;;;15.00;44.49;94473.91;5013585;28;20297;-85
2023/03/09 00:58:22;;;;;;;1.40;1.30;;;;;;;11.78;44.03;93964.44;4996005;28;20610;-86
2023/03/09 01:00:49;;;;;;;1.33;1.23;;;;;;;19.22;44.70;95175.84;4964866;28;20213;-85
2023/03/09 01:03:15;;;;;;;1.80;1.60;;;;;;;19.31;45.05;95192.88;4993940;28;20305;-85
2023/03/09 01:05:42;;;;;;;1.83;1.50;;;;;;;19.30;44.77;95184.38;5011981;28;20309;-85
2023/03/09 01:08:09;;;;;;;2.73;1.60;;;;;;;19.32;44.81;95213.25;4990250;28;20208;-85
2023/03/09 01:10:38;;;;;;;1.40;1.30;;;;;;;19.32;44.60;95167.41;4990117;28;20693;-85
2023/03/09 01:13:04;;;;;;;1.53;1.43;;;;;;;18.38;44.91;95006.97;4987569;28;20693;-85
2023/03/09 01:15:31;;;;;;;1.40;1.30;;;;;;;19.32;44.44;95159.78;4985069;28;20223;-86
2023/03/09 01:17:58;;;;;;;2.07;1.87;;;;;;;19.34;44.23;95164.84;4990707;28;20213;-85
2023/03/09 01:20:24;;;;;;;1.50;1.40;;;;;;;19.33;44.61;95153.81;4995599;28;20201;-85
2023/03/09 01:22:51;;;;;;;1.40;1.30;;;;;;;15.51;44.38;94497.84;5013669;28;20273;-85
2023/03/09 01:25:17;;;;;;;1.40;1.30;;;;;;;17.79;44.56;94872.13;5005638;28;20230;-85
2023/03/09 01:27:47;;;;;;;1.57;1.40;;;;;;;19.34;44.43;95129.22;4996866;28;20610;-85
2023/03/09 01:30:14;;;;;;;2.03;1.40;;;;;;;19.33;44.61;95120.72;5010837;28;20198;-86
2023/03/09 01:32:40;;;;;;;1.83;1.63;;;;;;;19.00;44.86;95062.13;4989997;28;20280;-86
2023/03/09 01:35:07;;;;;;;1.90;1.70;;;;;;;19.34;44.70;95107.16;4979167;28;20190;-85
2023/03/09 01:37:34;;;;;;;1.73;1.60;;;;;;;18.69;44.56;94999.38;4996953;28;20611;-86
2023/03/09 01:40:01;;;;;;;1.53;1.37;;;;;;;19.35;44.59;95116.47;4976736;28;20655;-85
2023/03/09 01:42:27;;;;;;;1.53;1.43;;;;;;;19.36;44.82;95107.16;4987627;28;20222;-85
2023/03/09 01:45:07;;;;;;;1.60;1.40;;;;;;;18.43;45.03;94954.41;4995590;28;20229;-86
2023/03/09 01:47:34;;;;;;;1.70;1.57;;;;;;;19.22;44.51;95061.25;4995825;28;20231;-86
2023/03/09 01:50:02;;;;;;;1.60;1.50;;;;;;;19.36;44.71;95079.97;4963751;28;20205;-86
2023/03/09 01:52:32;;;;;;;1.57;1.47;;;;;;;19.37;44.80;95080.81;5004112;28;20218;-86
2023/03/09 01:55:01;;;;;;;1.93;1.63;;;;;;;18.41;44.80;94928.16;4979025;28;20470;-85
2023/03/09 01:57:33;;;;;;;1.50;1.40;;;;;;;19.36;44.70;95090.16;4975895;28;20199;-86
2023/03/09 02:00:07;;;;;;;1.70;1.60;;;;;;;19.37;44.77;95084.22;4995027;28;20579;-85
2023/03/09 02:02:35;;;;;;;1.43;1.33;;;;;;;18.72;44.81;95054.47;4994783;28;20276;-86
2023/03/09 02:05:04;;;;;;;1.57;1.47;;;;;;;19.38;44.61;95164.88;4981266;28;20254;-86
2023/03/09 02:07:34;;;;;;;1.67;1.57;;;;;;;18.27;44.71;94927.25;4979138;28;20224;-86
2023/03/09 02:10:05;;;;;;;1.70;1.60;;;;;;;16.97;44.57;94707.81;4962996;28;20214;-86
2023/03/09 02:12:31;;;;;;;1.67;1.40;;;;;;;17.35;44.66;94797.56;4985479;28;20218;-86
2023/03/09 02:14:58;;;;;;;2.00;1.47;;;;;;;19.39;44.64;95147.91;4979050;28;20550;-85
2023/03/09 02:17:24;;;;;;;1.50;1.40;;;;;;;18.76;44.72;95063.81;5004128;28;20688;-86
2023/03/09 02:20:09;;;;;;;1.50;1.40;;;;;;;19.40;44.61;95186.09;4995033;28;20210;-86
2023/03/09 02:22:36;;;;;;;1.47;1.37;;;;;;;19.11;44.63;95151.22;5003227;28;20276;-84
2023/03/09 02:25:33;;;;;;;1.60;1.40;;;;;;;19.41;44.70;95245.50;4995383;28;20599;-86
2023/03/09 02:28:00;;;;;;;1.40;1.30;;;;;;;18.67;44.53;95081.59;4997651;28;20222;-85
2023/03/09 02:30:27;;;;;;;1.63;1.40;;;;;;;19.41;44.41;95192.88;4985449;28;20578;-86
2023/03/09 02:33:11;;;;;;;1.47;1.37;;;;;;;19.42;44.70;95178.47;4977251;28;20228;-85
2023/03/09 02:35:37;;;;;;;1.40;1.30;;;;;;;19.41;44.78;95182.69;4960029;28;20290;-84
2023/03/09 02:38:09;;;;;;;1.43;1.30;;;;;;;18.77;44.62;95068.06;4978309;28;20198;-85
2023/03/09 02:40:38;;;;;;;2.10;1.33;;;;;;;19.42;44.62;95198.84;4971872;28;20218;-86
2023/03/09 02:43:07;;;;;;;0.97;0.97;;;;;;;13.83;44.11;94350.13;4992166;28;20222;-85
2023/03/09 02:45:34;;;;;;;1.47;1.33;;;;;;;9.50;44.80;93541.00;4994765;28;20230;-86
2023/03/09 02:48:00;;;;;;;1.60;1.50;;;;;;;18.87;44.57;95121.50;4994679;28;20213;-85
2023/03/09 02:50:27;;;;;;;1.40;1.30;;;;;;;13.49;44.63;94222.00;5003846;28;20198;-84
2023/03/09 02:52:54;;;;;;;1.40;1.30;;;;;;;15.77;44.60;94597.53;4994719;28;20222;-85
2023/03/09 02:55:20;;;;;;;1.70;1.20;;;;;;;19.42;44.70;95225.13;4977936;28;20223;-86
2023/03/09 02:57:47;;;;;;;1.17;1.10;;;;;;;19.38;44.93;95217.47;5005753;28;20194;-86
2023/03/09 03:00:15;;;;;;;1.43;1.33;;;;;;;11.40;44.40;93989.09;4993289;28;20210;-85
2023/03/09 03:02:42;;;;;;;1.30;1.20;;;;;;;19.40;44.61;95233.63;5005451;28;20229;-86
2023/03/09 03:05:08;;;;;;;1.40;1.30;;;;;;;9.14;44.64;93496.31;4977643;28;20221;-84
2023/03/09 03:07:35;;;;;;;1.23;1.10;;;;;;;15.64;44.48;94632.88;5007215;28;20225;-85
2023/03/09 03:10:02;;;;;;;1.50;1.40;;;;;;;17.59;44.73;94932.19;5011874;28;20571;-86
2023/03/09 03:12:30;;;;;;;1.20;1.10;;;;;;;16.55;44.29;94749.06;4973166;28;20344;-86
2023/03/09 03:14:57;;;;;;;1.30;1.20;;;;;;;14.01;44.73;94320.78;4991244;28;20207;-86
2023/03/09 03:17:24;;;;;;;1.30;1.20;;;;;;;15.38;44.49;94528.13;4999916;28;20257;-86
2023/03/09 03:19:52;;;;;;;1.47;1.30;;;;;;;13.44;44.48;94224.50;4999146;28;20240;-86
2023/03/09 03:22:19;;;;;;;1.30;1.20;;;;;;;19.14;44.71;95163.94;4989187;28;20233;-86
2023/03/09 03:24:45;;;;;;;1.67;1.47;;;;;;;19.44;44.63;95222.59;4977975;28;20344;-86
2023/03/09 03:27:12;;;;;;;1.27;1.17;;;;;;;17.10;45.04;94857.53;5011452;28;20202;-85
2023/03/09 03:29:40;;;;;;;1.70;1.33;;;;;;;19.42;44.85;95230.22;4965931;28;20659;-86
2023/03/09 03:32:07;;;;;;;1.30;1.20;;;;;;;19.44;44.59;95250.59;4990907;28;20603;-85
2023/03/09 03:34:34;;;;;;;1.67;1.37;;;;;;;19.44;44.63;95258.25;4993836;28;20301;-85
2023/03/09 03:37:00;;;;;;;1.40;1.30;;;;;;;19.42;44.45;95258.25;5004361;28;20234;-85
2023/03/09 03:39:29;;;;;;;1.30;1.20;;;;;;;18.76;44.55;95157.94;4990995;28;20682;-86
2023/03/09 03:41:56;;;;;;;1.00;1.00;;;;;;;19.44;44.94;95255.69;4973648;28;20206;-85
2023/03/09 03:44:22;;;;;;;1.50;1.10;;;;;;;19.44;44.63;95254.00;5017273;28;20324;-85
2023/03/09 03:46:49;;;;;;;1.13;1.10;;;;;;;19.44;44.67;95226.00;5009568;28;20285;-86
2023/03/09 03:49:15;;;;;;;1.20;1.10;;;;;;;19.44;44.62;95232.78;5016039;28;20264;-85
2023/03/09 03:51:42;;;;;;;1.40;1.30;;;;;;;19.44;44.84;95227.69;5000396;28;20202;-85
2023/03/09 03:54:13;;;;;;;1.10;1.10;;;;;;;19.43;44.69;95231.94;5002488;28;20312;-84
2023/03/09 03:56:39;;;;;;;1.47;1.20;;;;;;;18.18;44.81;95019.63;4997352;28;20234;-85
2023/03/09 03:59:06;;;;;;;1.50;1.40;;;;;;;18.51;44.57;95069.72;5000083;28;20580;-86
2023/03/09 04:01:34;;;;;;;1.30;1.20;;;;;;;18.53;44.44;95080.75;4982938;28;20202;-86
2023/03/09 04:04:00;;;;;;;1.03;0.97;;;;;;;16.72;44.67;94752.53;4983871;28;20229;-84
2023/03/09 04:06:27;;;;;;;1.10;1.10;;;;;;;19.44;44.51;95228.53;5002368;28;20268;-86
2023/03/09 04:08:53;;;;;;;1.40;1.20;;;;;;;18.95;44.52;95139.34;4997996;28;20209;-85
2023/03/09 04:11:20;;;;;;;1.33;1.23;;;;;;;19.44;44.48;95209.84;4965675;28;20195;-86
2023/03/09 04:13:48;;;;;;;1.57;1.10;;;;;;;17.01;44.50;94834.66;5010652;28;20241;-86
2023/03/09 04:16:15;;;;;;;1.20;1.10;;;;;;;17.64;44.51;94931.38;4983802;28;20222;-85
2023/03/09 04:18:42;;;;;;;1.00;1.00;;;;;;;19.44;44.52;95248.91;4999902;28;20216;-86
2023/03/09 04:21:08;;;;;;;1.30;1.20;;;;;;;18.57;44.48;95102.78;5013065;28;20202;-86
2023/03/09 04:23:35;;;;;;;1.20;1.10;;;;;;;19.45;44.59;95263.34;5000215;28;20264;-86
2023/03/09 04:26:03;;;;;;;1.43;1.30;;;;;;;19.45;44.42;95258.25;5016314;28;20316;-85
2023/03/09 04:28:31;;;;;;;0.90;0.90;;;;;;;19.46;44.39;95259.09;5017474;28;20554;-85
2023/03/09 04:30:58;;;;;;;1.20;1.10;;;;;;;19.46;44.95;95269.28;5013765;28;20216;-86
2023/03/09 04:33:31;;;;;;;1.20;1.10;;;;;;;19.47;44.42;95265.88;5013392;28;20222;-85
2023/03/09 04:35:57;;;;;;;1.20;1.10;;;;;;;15.64;44.65;94734.97;5007027;28;20238;-85
2023/03/09 04:38:26;;;;;;;1.33;1.27;;;;;;;19.47;44.43;95265.88;4982780;28;20221;-85
2023/03/09 04:40:53;;;;;;;1.00;1.00;;;;;;;19.46;44.61;95277.78;5008060;28;20690;-85
2023/03/09 04:43:19;;;;;;;1.47;1.10;;;;;;;19.46;44.58;95270.16;5007707;28;20264;-86
2023/03/09 04:45:46;;;;;;;1.40;1.30;;;;;;;19.46;44.35;95271.84;5003128;28;20571;-85
2023/03/09 04:48:12;;;;;;;1.07;1.00;;;;;;;18.58;44.63;95140.94;5002341;28;20298;-84
2023/03/09 04:50:39;;;;;;;1.30;1.20;;;;;;;19.46;44.57;95272.69;4982954;28;20293;-85
2023/03/09 04:53:05;;;;;;;0.80;0.80;;;;;;;18.78;44.41;95166.44;5014053;28;20214;-87
2023/03/09 04:55:33;;;;;;;1.10;1.00;;;;;;;19.47;44.55;95279.47;4994371;28;20253;-86
2023/03/09 04:57:59;;;;;;;1.10;1.10;;;;;;;19.46;44.88;95282.03;4995950;28;20268;-84
2023/03/09 05:00:26;;;;;;;1.10;1.10;;;;;;;19.45;44.25;95288.81;5009634;28;20195;-85
2023/03/09 05:02:54;;;;;;;1.20;1.10;;;;;;;19.44;44.66;95294.75;5008015;28;20219;-87
2023/03/09 05:05:20;;;;;;;1.10;1.00;;;;;;;18.46;45.01;95124.78;4996104;28;20604;-86
2023/03/09 05:07:47;;;;;;;1.03;1.03;;;;;;;18.76;44.48;95184.22;5005493;28;20208;-86
2023/03/09 05:10:14;;;;;;;0.90;0.90;;;;;;;18.82;44.58;95196.09;4971617;28;20203;-85
2023/03/09 05:12:40;;;;;;;0.97;0.97;;;;;;;19.12;44.37;95262.38;4985782;28;20309;-86
2023/03/09 05:15:08;;;;;;;1.63;1.10;;;;;;;19.41;44.83;95332.09;4995979;28;21484;-86
2023/03/09 05:17:34;;;;;;;1.00;1.00;;;;;;;19.41;44.85;95342.28;4985282;28;20264;-87
2023/03/09 05:20:01;;;;;;;3.17;1.00;;;;;;;19.39;44.73;95352.47;4968129;28;20761;-86
2023/03/09 05:22:27;;;;;;;1.20;1.03;;;;;;;19.39;44.19;95365.19;4995160;28;20226;-86
2023/03/09 05:24:56;;;;;;;1.47;1.00;;;;;;;19.07;45.00;95328.53;4980995;28;20214;-86
2023/03/09 05:27:23;;;;;;;0.90;0.90;;;;;;;19.38;45.09;95391.53;4983561;28;20198;-87
2023/03/09 05:29:51;;;;;;;1.00;1.00;;;;;;;17.37;44.99;95057.28;4985302;28;20210;-86
2023/03/09 05:32:17;;;;;;;1.00;1.00;;;;;;;18.33;44.89;95227.25;4968416;28;20293;-87
2023/03/09 05:34:45;;;;;;;1.20;1.10;;;;;;;19.37;44.89;95422.94;4970912;28;20774;-86
2023/03/09 05:37:12;;;;;;;2.67;1.00;;;;;;;19.38;44.90;95431.41;4983654;28;20206;-86
2023/03/09 05:39:38;;;;;;;3.70;1.40;;;;;;;19.38;45.13;95446.69;4987114;28;20297;-84
2023/03/09 05:42:05;;;;;;;9.87;1.87;;;;;;;18.78;45.10;95347.06;4994739;28;20213;-87
2023/03/09 05:44:32;;;;;;;9.10;2.03;;;;;;;19.04;45.08;95401.50;5012409;28;20198;-84
2023/03/09 05:46:59;;;;;;;14.20;1.73;;;;;;;19.37;44.93;95452.63;4981249;28;20735;-84
2023/03/09 05:49:30;;;;;;;4.13;1.80;;;;;;;18.67;45.31;95346.16;4980723;28;20744;-87
2023/03/09 05:51:57;;;;;;;14.43;1.87;;;;;;;19.34;45.00;95452.63;4981408;28;20222;-86
2023/03/09 05:54:24;;;;;;;4.90;1.90;;;;;;;19.39;45.29;95461.16;5007114;28;20214;-86
2023/03/09 05:56:54;;;;;;;8.00;1.90;;;;;;;18.24;45.21;95269.56;4994253;28;20605;-88
2023/03/09 05:59:20;;;;;;;6.57;1.80;;;;;;;19.38;45.32;95483.22;4980402;28;20252;-86
2023/03/09 06:01:47;;;;;;;10.93;2.10;;;;;;;19.08;45.61;95436.31;4994299;28;20202;-86
2023/03/09 06:04:14;;;;;;;10.83;1.67;;;;;;;19.39;45.36;95496.81;4993449;28;20222;-85
2023/03/09 06:06:40;;;;;;;7.67;1.70;;;;;;;19.37;44.98;95491.69;5013556;28;20222;-87
2023/03/09 06:09:07;;;;;;;12.97;2.13;;;;;;;18.50;45.00;95353.66;4996170;28;20240;-85
2023/03/09 06:11:33;;;;;;;10.03;1.87;;;;;;;19.37;45.11;95514.63;4973731;28;20231;-86
2023/03/09 06:14:00;;;;;;;13.10;1.80;;;;;;;18.34;44.95;95351.84;4998062;28;20340;-85
2023/03/09 06:16:27;;;;;;;5.63;1.80;;;;;;;19.37;45.34;95544.31;5008620;28;20190;-85
2023/03/09 06:18:56;;;;;;;7.20;1.73;;;;;;;17.60;45.11;95241.13;5008733;28;20199;-86
2023/03/09 06:21:23;;;;;;;5.10;1.90;;;;;;;19.36;44.97;95543.47;4979069;28;20302;-85
2023/03/09 06:23:52;;;;;;;5.23;1.80;;;;;;;18.24;45.11;95372.97;4987179;28;20235;-86
2023/03/09 06:26:19;;;;;;;6.30;1.57;;;;;;;18.87;45.04;95487.94;4960559;28;20214;-85
2023/03/09 06:28:46;;;;;;;4.63;2.00;;;;;;;18.74;45.27;95477.66;4985557;28;20203;-85
2023/03/09 06:31:13;;;;;;;7.83;1.67;;;;;;;19.35;45.28;95584.19;4992054;28;20268;-86
2023/03/09 06:33:40;;;;;;;6.93;1.63;;;;;;;19.35;45.14;95586.75;4999982;28;20575;-85
2023/03/09 06:36:08;;;;;;;4.10;1.47;;;;;;;18.76;45.50;95504.81;4994378;28;20285;-89
2023/03/09 06:38:35;;;;;;;4.23;1.60;;;;;;;19.33;45.37;95602.00;4982043;28;20244;-85
2023/03/09 06:41:02;;;;;;;2.73;1.43;;;;;;;18.02;45.33;95406.63;4992191;28;20237;-88
2023/03/09 06:43:28;;;;;;;3.47;1.20;;;;;;;19.34;45.45;95633.44;4959134;28;20219;-88
2023/03/09 06:45:55;;;;;;;3.60;1.60;;;;;;;19.33;45.23;95639.38;4995555;28;20214;-84
2023/03/09 06:48:21;;;;;;;6.87;2.07;;;;;;;19.32;45.72;95648.72;5010266;28;20209;-83
2023/03/09 06:50:51;;;;;;;2.60;1.40;;;;;;;19.30;45.23;95642.75;4995938;28;20293;-84
2023/03/09 06:53:17;;;;;;;3.00;1.47;;;;;;;19.30;45.31;95660.56;4987284;28;20222;-84
2023/03/09 06:55:44;;;;;;;5.67;1.33;;;;;;;19.30;45.18;95664.81;4998311;28;20195;-84
2023/03/09 06:58:11;;;;;;;4.00;1.80;;;;;;;19.29;45.24;95669.06;5009027;28;20619;-84
2023/03/09 07:00:40;;;;;;;2.47;1.30;;;;;;;18.11;45.46;95488.03;5006530;28;20202;-85
2023/03/09 07:03:10;;;;;;;3.57;1.33;;;;;;;19.28;45.44;95681.78;4991137;28;20245;-85
2023/03/09 07:05:37;;;;;;;2.53;1.50;;;;;;;18.95;45.37;95648.34;4976986;28;20214;-83
2023/03/09 07:08:04;;;;;;;2.43;1.30;;;;;;;19.28;45.44;95715.75;4974805;28;20201;-84
2023/03/09 07:10:30;;;;;;;3.97;1.47;;;;;;;17.76;45.48;95456.31;4989112;28;20202;-84
2023/03/09 07:12:57;;;;;;;4.10;1.60;;;;;;;19.26;45.10;95725.03;4972095;28;20215;-85
2023/03/09 07:15:23;;;;;;;2.50;1.40;;;;;;;18.92;45.45;95669.50;5008251;28;20662;-84
2023/03/09 07:17:50;;;;;;;1.73;1.43;;;;;;;19.25;45.63;95735.19;4975811;28;20294;-84
2023/03/09 07:20:17;;;;;;;3.50;1.40;;;;;;;18.32;45.42;95587.41;5009086;28;20199;-84
2023/03/09 07:22:43;;;;;;;2.83;1.37;;;;;;;18.40;45.35;95611.28;4992573;28;20236;-84
2023/03/09 07:25:10;;;;;;;3.57;1.57;;;;;;;18.94;45.29;95713.66;4983300;28;20203;-84
2023/03/09 07:27:36;;;;;;;2.70;1.20;;;;;;;17.31;45.33;95440.50;4983556;28;20202;-85
2023/03/09 07:30:03;;;;;;;3.00;1.43;;;;;;;18.91;45.47;95725.47;4970382;28;20211;-85
2023/03/09 07:32:29;;;;;;;1.20;1.10;;;;;;;18.90;45.47;95755.19;4967352;28;20233;-84
2023/03/09 07:34:56;;;;;;;3.43;1.40;;;;;;;19.23;45.48;95775.91;4976043;28;20257;-84
2023/03/09 07:37:23;;;;;;;1.47;1.20;;;;;;;18.20;45.39;95600.00;4986629;28;20206;-83
2023/03/09 07:39:49;;;;;;;2.53;1.17;;;;;;;18.27;45.21;95613.63;4969329;28;20206;-85
2023/03/09 07:42:16;;;;;;;2.60;1.30;;;;;;;19.24;44.95;95786.94;4971343;28;20312;-85
2023/03/09 07:45:02;;;;;;;1.87;1.10;;;;;;;18.83;45.36;95722.00;4991697;28;20319;-83
2023/03/09 07:47:29;;;;;;;3.40;1.90;;;;;;;19.23;45.23;95798.84;4990033;28;20225;-84
2023/03/09 07:49:56;;;;;;;3.33;1.37;;;;;;;18.86;45.32;95742.41;4987015;28;20617;-85
2023/03/09 07:52:24;;;;;;;2.10;1.40;;;;;;;19.22;45.37;95798.81;4973836;28;20226;-83
2023/03/09 07:54:50;;;;;;;1.87;1.40;;;;;;;18.17;45.20;95623.69;4977660;28;20264;-85
2023/03/09 07:57:18;;;;;;;2.70;1.63;;;;;;;18.97;45.06;95764.59;4973413;28;20199;-85
2023/03/09 07:59:45;;;;;;;2.67;1.37;;;;;;;18.76;45.13;95740.56;4987945;28;20238;-85
2023/03/09 08:02:11;;;;;;;3.90;1.47;;;;;;;19.06;45.62;95787.59;4986859;28;20229;-84
2023/03/09 08:04:38;;;;;;;4.10;1.43;;;;;;;19.22;45.22;95819.19;4973101;28;20213;-84
2023/03/09 08:07:05;;;;;;;1.70;1.27;;;;;;;19.21;45.34;95823.41;4997525;28;20230;-84
2023/03/09 08:09:31;;;;;;;2.57;1.50;;;;;;;19.21;45.27;95823.41;5007414;28;20248;-84
2023/03/09 08:11:58;;;;;;;3.23;1.50;;;;;;;18.34;45.04;95681.50;5005249;28;20224;-87
2023/03/09 08:14:25;;;;;;;2.90;1.40;;;;;;;19.20;45.50;95834.44;4964621;28;20222;-83
2023/03/09 08:16:52;;;;;;;5.43;1.47;;;;;;;19.22;45.37;95835.31;4994033;28;20211;-85
2023/03/09 08:19:20;;;;;;;2.47;1.50;;;;;;;18.70;45.71;95754.09;4987016;28;20264;-85
2023/03/09 08:21:46;;;;;;;1.97;1.30;;;;;;;19.22;45.22;95849.75;4974794;28;20647;-85
2023/03/09 08:24:13;;;;;;;1.60;1.40;;;;;;;18.26;45.36;95683.13;4971580;28;20976;-85
2023/03/09 08:26:41;;;;;;;2.97;1.57;;;;;;;19.22;45.59;95847.19;4987241;28;20229;-87
2023/03/09 08:29:07;;;;;;;3.20;1.60;;;;;;;18.63;45.66;95749.78;4988049;28;20318;-85
2023/03/09 08:31:34;;;;;;;4.60;1.70;;;;;;;18.09;45.50;95665.94;4980555;28;20345;-86
2023/03/09 08:34:01;;;;;;;3.03;1.70;;;;;;;17.31;45.64;95534.44;4974181;28;20285;-82
2023/03/09 08:36:28;;;;;;;2.17;1.50;;;;;;;19.22;45.56;95862.47;4952901;28;20198;-84
2023/03/09 08:38:55;;;;;;;3.23;2.00;;;;;;;18.15;45.61;95676.19;5007248;28;20824;-84
2023/03/09 08:41:21;;;;;;;2.30;1.73;;;;;;;18.27;45.42;95702.63;4981469;28;20199;-85
2023/03/09 08:43:48;;;;;;;2.70;1.40;;;;;;;18.33;45.70;95717.97;4990480;28;20723;-84
2023/03/09 08:46:15;;;;;;;3.53;1.80;;;;;;;18.26;45.39;95716.19;4976035;28;20222;-84
2023/03/09 08:48:42;;;;;;;2.77;1.40;;;;;;;18.77;45.42;95808.47;4974564;28;20211;-84
2023/03/09 08:51:09;;;;;;;2.47;1.50;;;;;;;17.98;45.49;95664.97;4974842;28;20210;-84
2023/03/09 08:53:36;;;;;;;4.47;1.57;;;;;;;18.83;45.35;95819.53;4976351;28;20317;-85
2023/03/09 08:56:07;;;;;;;4.07;1.60;;;;;;;17.70;45.41;95628.97;4962005;28;20581;-83
2023/03/09 08:58:34;;;;;;;3.43;1.57;;;;;;;18.89;45.72;95834.91;4975226;28;20242;-84
2023/03/09 09:01:02;;;;;;;3.43;1.60;;;;;;;17.11;45.44;95531.59;4958186;28;20209;-83
2023/03/09 09:03:29;;;;;;;3.60;1.60;;;;;;;19.25;45.53;95898.16;4960622;28;20252;-84
2023/03/09 09:05:56;;;;;;;4.40;1.60;;;;;;;18.63;45.63;95795.56;4988284;28;20321;-84
2023/03/09 09:08:24;;;;;;;3.40;1.80;;;;;;;19.24;45.36;95897.31;4974952;28;20298;-83
2023/03/09 09:10:51;;;;;;;2.50;1.30;;;;;;;18.91;45.71;95843.41;4994219;28;20210;-84
2023/03/09 09:13:17;;;;;;;3.33;1.63;;;;;;;19.25;45.47;95913.44;4988719;28;20254;-84
2023/03/09 09:15:44;;;;;;;3.90;2.17;;;;;;;18.78;45.44;95835.59;5009374;28;20222;-85
2023/03/09 09:18:11;;;;;;;1.87;1.53;;;;;;;18.35;45.27;95768.00;4976777;28;20218;-85
2023/03/09 09:20:37;;;;;;;1.90;1.47;;;;;;;18.10;45.54;95730.34;4958158;28;20217;-84
2023/03/09 09:23:04;;;;;;;4.77;1.50;;;;;;;19.25;45.60;95924.50;4978759;28;20602;-84
2023/03/09 09:25:30;;;;;;;1.20;1.10;;;;;;;18.92;45.51;95885.00;5004082;28;20732;-84
2023/03/09 09:28:00;;;;;;;2.70;1.67;;;;;;;18.98;45.64;95882.53;4989207;28;20265;-84
2023/03/09 09:30:27;;;;;;;2.13;1.20;;;;;;;19.25;46.09;95936.38;4991247;28;20694;-84
2023/03/09 09:32:53;;;;;;;5.93;1.60;;;;;;;18.88;45.72;95879.00;4990441;28;20304;-85
2023/03/09 09:35:20;;;;;;;2.67;1.87;;;;;;;19.25;45.74;95937.22;4959252;28;20216;-84
2023/03/09 09:37:46;;;;;;;2.97;1.50;;;;;;;18.95;45.66;95879.97;4992225;28;20203;-84
2023/03/09 09:40:13;;;;;;;2.70;1.50;;;;;;;19.25;45.48;95934.69;5008654;28;20622;-84
2023/03/09 09:42:43;;;;;;;2.13;1.47;;;;;;;18.31;45.66;95781.50;4990931;28;20663;-85
2023/03/09 09:45:31;;;;;;;1.63;1.43;;;;;;;19.26;45.88;95936.38;4977203;28;20221;-84
2023/03/09 09:47:59;;;;;;;2.17;1.30;;;;;;;19.26;45.52;95932.97;4972539;28;20225;-84
2023/03/09 09:50:39;;;;;;;2.87;1.40;;;;;;;19.20;45.49;95927.81;4991213;28;20221;-85
2023/03/09 09:53:39;;;;;;;1.50;1.30;;;;;;;19.02;45.54;95886.81;4970927;28;20222;-84
2023/03/09 09:56:10;;;;;;;2.37;1.33;;;;;;;19.26;45.47;95936.38;4918618;28;20250;-84
2023/03/09 09:58:49;;;;;;;2.87;1.50;;;;;;;18.38;45.50;95795.19;4975898;28;20557;-85
2023/03/09 10:01:35;;;;;;;1.93;1.40;;;;;;;19.26;45.64;95949.13;4978177;28;20705;-84
2023/03/09 10:04:04;;;;;;;1.80;1.43;;;;;;;19.26;45.81;95955.91;4988939;28;20778;-83
2023/03/09 10:06:31;;;;;;;1.57;1.37;;;;;;;19.26;45.27;95940.63;4958004;28;20317;-85
2023/03/09 10:08:59;;;;;;;1.67;1.37;;;;;;;19.26;45.55;95941.47;4990370;28;20293;-85
2023/03/09 10:11:58;;;;;;;2.13;1.20;;;;;;;18.28;45.49;95781.47;4991604;28;20298;-83
2023/03/09 10:14:33;;;;;;;1.83;1.47;;;;;;;18.32;45.50;95784.91;4968234;28;20261;-84
2023/03/09 10:17:00;;;;;;;1.77;1.40;;;;;;;19.25;45.67;95942.31;4991593;28;20210;-84
2023/03/09 10:19:31;;;;;;;1.60;1.50;;;;;;;19.26;45.47;95964.41;5005147;28;20230;-84
2023/03/09 10:21:59;;;;;;;2.37;1.40;;;;;;;19.08;45.60;95923.41;4965875;28;20211;-84
2023/03/09 10:24:26;;;;;;;2.17;1.40;;;;;;;19.26;45.60;95959.31;4960110;28;20202;-85
2023/03/09 10:26:57;;;;;;;3.03;1.37;;;;;;;19.26;45.68;95953.34;4989400;28;20221;-85
2023/03/09 10:30:02;;;;;;;2.60;1.60;;;;;;;19.25;45.57;95960.16;4989906;28;20622;-84
2023/03/09 10:32:57;;;;;;;2.77;1.53;;;;;;;19.26;45.78;95961.84;5006839;28;20230;-85
2023/03/09 10:35:40;;;;;;;2.37;1.60;;;;;;;19.26;45.72;95971.19;4979878;28;20210;-85
2023/03/09 10:38:16;;;;;;;2.37;1.50;;;;;;;18.07;45.64;95763.34;4974084;28;20298;-84
2023/03/09 10:40:48;;;;;;;2.53;1.47;;;;;;;18.29;45.63;95811.13;4960920;28;20201;-84
2023/03/09 10:43:28;;;;;;;4.00;1.73;;;;;;;19.09;45.70;95944.63;4991247;28;20248;-84
2023/03/09 10:45:59;;;;;;;1.93;1.30;;;;;;;18.82;45.74;95901.81;4990234;28;20669;-84
2023/03/09 10:48:26;;;;;;;1.63;1.20;;;;;;;18.61;45.62;95908.28;4991706;28;20631;-84
2023/03/09 10:51:00;;;;;;;2.70;1.40;;;;;;;16.91;45.65;95598.97;4961290;28;20210;-85
2023/03/09 10:53:37;;;;;;;2.43;1.50;;;;;;;19.26;45.86;95973.72;4975607;28;20260;-85
2023/03/09 10:56:04;;;;;;;2.07;1.50;;;;;;;19.25;45.82;95977.97;5005515;28;20269;-84
2023/03/09 10:58:32;;;;;;;1.83;1.30;;;;;;;18.72;45.76;95887.28;5002429;28;20754;-84
2023/03/09 11:01:00;;;;;;;1.87;1.60;;;;;;;19.26;45.78;95989.00;4959924;28;20269;-84
2023/03/09 11:03:37;;;;;;;2.33;1.60;;;;;;;18.46;45.71;95854.63;5005848;28;20416;-84
2023/03/09 11:06:22;;;;;;;2.43;1.53;;;;;;;19.27;45.87;95983.13;4973167;28;20212;-84
2023/03/09 11:09:07;;;;;;;3.83;1.80;;;;;;;19.26;45.86;95986.47;4992368;28;20216;-84
2023/03/09 11:11:43;;;;;;;4.13;1.47;;;;;;;19.27;45.72;95983.13;4953871;28;20241;-85
2023/03/09 11:14:31;;;;;;;2.67;1.60;;;;;;;18.21;45.56;95807.63;4969300;28;20488;-84
2023/03/09 11:16:59;;;;;;;1.70;1.47;;;;;;;18.65;45.94;95877.00;4970774;28;20716;-84
2023/03/09 11:19:27;;;;;;;1.90;1.57;;;;;;;18.37;45.66;95829.03;4968878;28;20337;-85
2023/03/09 11:21:56;;;;;;;3.23;1.57;;;;;;;19.26;45.72;95982.22;4965082;28;20615;-84
2023/03/09 11:24:25;;;;;;;2.50;1.50;;;;;;;18.89;45.64;95929.06;5004145;28;20253;-84
2023/03/09 11:26:55;;;;;;;2.77;1.43;;;;;;;19.27;45.71;95990.78;4992085;28;20425;-85
2023/03/09 11:29:33;;;;;;;2.77;1.43;;;;;;;19.26;45.61;96022.09;4991243;28;20297;-85
2023/03/09 11:32:00;;;;;;;3.60;1.63;;;;;;;18.95;45.86;95969.88;4974487;28;20206;-85
2023/03/09 11:34:35;;;;;;;2.07;1.40;;;;;;;19.01;45.82;95992.03;4969230;28;20206;-84
2023/03/09 11:37:32;;;;;;;2.37;1.50;;;;;;;19.26;46.03;96040.81;4975136;28;20674;-85
2023/03/09 11:40:05;;;;;;;2.00;1.33;;;;;;;19.27;45.93;96034.06;4983878;28;20883;-84
2023/03/09 11:42:41;;;;;;;2.17;1.60;;;;;;;18.38;45.78;95872.31;5001677;28;20226;-84